createdAt,value
2022-12-09T00:01:27.965Z,6.30
2022-12-09T00:03:56.160Z,6.13
2022-12-09T00:06:25.564Z,6.30
2022-12-09T00:08:52.944Z,5.77
2022-12-09T00:11:20.855Z,5.97
2022-12-09T00:13:52.815Z,6.70
2022-12-09T00:16:19.815Z,6.30
2022-12-09T00:18:46.583Z,5.77
2022-12-09T00:21:18.984Z,5.97
2022-12-09T00:23:45.826Z,6.30
2022-12-09T00:26:13.135Z,6.03
2022-12-09T00:28:40.510Z,5.60
2022-12-09T00:31:08.039Z,5.57
2022-12-09T00:33:35.256Z,6.13
2022-12-09T00:36:10.685Z,5.90
2022-12-09T00:38:37.893Z,5.93
2022-12-09T00:41:05.602Z,6.30
2022-12-09T00:43:33.115Z,6.20
2022-12-09T00:46:00.603Z,5.93
2022-12-09T00:48:28.248Z,6.27
2022-12-09T00:50:55.424Z,5.73
2022-12-09T00:53:22.076Z,6.20
2022-12-09T00:55:49.088Z,6.17
2022-12-09T00:58:16.093Z,5.77
2022-12-09T01:00:43.013Z,6.00
2022-12-09T01:03:17.597Z,5.90
2022-12-09T01:05:44.911Z,5.73
2022-12-09T01:08:12.575Z,5.43
2022-12-09T01:10:41.497Z,5.43
2022-12-09T01:13:08.655Z,6.07
2022-12-09T01:15:36.144Z,6.47
2022-12-09T01:18:03.330Z,6.07
2022-12-09T01:20:30.007Z,5.77
2022-12-09T01:22:56.686Z,5.77
2022-12-09T01:25:23.277Z,6.17
2022-12-09T01:27:50.224Z,5.40
2022-12-09T01:30:17.248Z,5.73
2022-12-09T01:32:44.240Z,6.00
2022-12-09T01:35:11.174Z,5.40
2022-12-09T01:37:38.401Z,5.53
2022-12-09T01:40:08.374Z,5.53
2022-12-09T01:42:35.552Z,5.97
2022-12-09T01:45:20.715Z,5.53
2022-12-09T01:47:49.245Z,5.90
2022-12-09T01:50:16.926Z,5.53
2022-12-09T01:52:44.717Z,5.80
2022-12-09T01:55:12.219Z,5.23
2022-12-09T01:57:39.698Z,6.13
2022-12-09T02:00:07.892Z,5.77
2022-12-09T02:02:38.336Z,5.87
2022-12-09T02:05:06.641Z,5.53
2022-12-09T02:07:33.900Z,5.40
2022-12-09T02:10:02.447Z,5.60
2022-12-09T02:12:41.185Z,5.70
2022-12-09T02:17:55.524Z,5.67
2022-12-09T02:20:24.858Z,6.00
2022-12-09T02:23:07.590Z,5.97
2022-12-09T02:25:49.642Z,5.90
2022-12-09T02:28:34.857Z,5.80
2022-12-09T02:31:25.754Z,5.63
2022-12-09T02:33:58.620Z,5.70
2022-12-09T02:36:30.040Z,5.70
2022-12-09T02:38:58.532Z,5.40
2022-12-09T02:41:30.692Z,5.17
2022-12-09T02:44:03.116Z,5.97
2022-12-09T02:46:31.761Z,5.80
2022-12-09T02:48:59.731Z,5.70
2022-12-09T02:51:30.046Z,5.97
2022-12-09T02:54:04.150Z,5.70
2022-12-09T02:56:32.447Z,5.50
2022-12-09T02:58:59.173Z,5.83
2022-12-09T03:01:40.266Z,6.30
2022-12-09T03:04:09.109Z,6.50
2022-12-09T03:06:46.852Z,5.87
2022-12-09T03:09:26.796Z,6.20
2022-12-09T03:11:58.421Z,5.23
2022-12-09T03:14:36.116Z,5.67
2022-12-09T03:17:13.134Z,5.50
2022-12-09T03:19:40.205Z,5.67
2022-12-09T03:22:13.060Z,5.97
2022-12-09T03:24:46.083Z,6.07
2022-12-09T03:27:18.767Z,5.67
2022-12-09T03:29:48.323Z,5.57
2022-12-09T03:32:17.992Z,5.80
2022-12-09T03:34:47.849Z,6.33
2022-12-09T03:37:17.404Z,5.67
2022-12-09T03:39:45.702Z,6.27
2022-12-09T03:42:33.495Z,6.00
2022-12-09T03:45:06.121Z,5.63
2022-12-09T03:47:33.422Z,6.00
2022-12-09T03:50:00.515Z,5.63
2022-12-09T03:52:34.422Z,6.27
2022-12-09T03:55:27.225Z,6.10
2022-12-09T03:57:58.181Z,5.40
2022-12-09T04:00:25.144Z,5.67
2022-12-09T04:02:52.540Z,5.63
2022-12-09T04:05:19.722Z,6.00
2022-12-09T04:07:46.703Z,5.80
2022-12-09T04:10:13.859Z,5.47
2022-12-09T04:12:40.523Z,5.97
2022-12-09T04:15:07.801Z,5.50
2022-12-09T04:22:38.114Z,5.70
2022-12-09T04:25:05.268Z,7.30
2022-12-09T04:27:32.032Z,6.37
2022-12-09T04:29:58.949Z,7.03
2022-12-09T04:32:26.068Z,7.03
2022-12-09T04:34:52.705Z,5.80
2022-12-09T04:37:19.650Z,6.03
2022-12-09T04:39:46.277Z,5.87
2022-12-09T04:42:13.007Z,5.40
2022-12-09T04:47:11.263Z,5.33
2022-12-09T04:49:38.273Z,5.60
2022-12-09T04:52:05.410Z,5.47
2022-12-09T04:59:38.386Z,5.80
2022-12-09T05:02:05.165Z,5.43
2022-12-09T05:04:32.040Z,5.80
2022-12-09T05:06:58.908Z,6.00
2022-12-09T05:09:25.875Z,5.57
2022-12-09T05:11:53.689Z,5.23
2022-12-09T05:14:20.941Z,6.07
2022-12-09T05:16:47.685Z,5.43
2022-12-09T05:19:14.593Z,5.00
2022-12-09T05:21:44.103Z,5.67
2022-12-09T05:24:11.254Z,5.47
2022-12-09T05:26:38.470Z,5.73
2022-12-09T05:29:05.936Z,6.07
2022-12-09T05:31:33.421Z,5.37
2022-12-09T05:34:00.646Z,5.97
2022-12-09T05:38:59.200Z,5.37
2022-12-09T05:41:26.222Z,6.17
2022-12-09T05:43:53.336Z,6.40
2022-12-09T05:46:20.689Z,5.97
2022-12-09T05:48:47.649Z,5.80
2022-12-09T05:51:32.922Z,6.10
2022-12-09T05:54:04.988Z,6.43
2022-12-09T05:56:33.528Z,6.43
2022-12-09T05:59:00.820Z,5.80
2022-12-09T06:01:27.939Z,6.13
2022-12-09T06:03:55.429Z,5.77
2022-12-09T06:06:27.018Z,5.70
2022-12-09T06:08:59.875Z,5.70
2022-12-09T06:11:27.906Z,6.37
2022-12-09T06:13:55.464Z,5.53
2022-12-09T06:16:23.394Z,6.30
2022-12-09T06:18:51.566Z,6.23
2022-12-09T06:21:20.013Z,5.70
2022-12-09T06:23:47.630Z,6.07
2022-12-09T06:26:22.291Z,6.27
2022-12-09T06:28:49.539Z,6.03
2022-12-09T06:33:57.542Z,5.90
2022-12-09T06:36:27.842Z,6.20
2022-12-09T06:41:26.389Z,6.40
2022-12-09T06:43:53.862Z,6.50
2022-12-09T06:46:26.030Z,6.67
2022-12-09T06:48:54.818Z,6.60
2022-12-09T06:51:23.037Z,6.30
2022-12-09T06:53:50.119Z,6.30
2022-12-09T06:56:17.704Z,5.87
2022-12-09T06:58:46.113Z,6.30
2022-12-09T07:01:18.525Z,6.60
2022-12-09T07:03:50.752Z,7.23
2022-12-09T07:06:29.923Z,6.37
2022-12-09T07:08:59.076Z,6.37
2022-12-09T07:13:57.750Z,6.30
2022-12-09T07:16:25.229Z,6.07
2022-12-09T07:18:52.783Z,6.23
2022-12-09T07:21:22.772Z,6.27
2022-12-09T07:23:50.069Z,6.03
2022-12-09T07:26:18.579Z,6.27
2022-12-09T07:28:47.449Z,6.30
2022-12-09T07:31:25.479Z,7.27
2022-12-09T07:33:54.386Z,7.20
2022-12-09T07:36:22.774Z,8.13
2022-12-09T07:39:05.474Z,6.83
2022-12-09T07:41:32.557Z,13.90
2022-12-09T07:43:59.809Z,8.63
2022-12-09T07:46:27.869Z,12.37
2022-12-09T07:48:56.465Z,8.80
2022-12-09T07:51:25.161Z,7.93
2022-12-09T07:53:52.562Z,57.13
2022-12-09T07:56:19.742Z,30.30
2022-12-09T07:58:48.120Z,10.40
2022-12-09T08:01:18.822Z,8.70
2022-12-09T08:03:47.374Z,7.27
2022-12-09T08:06:17.180Z,7.40
2022-12-09T08:08:44.659Z,7.90
2022-12-09T08:11:16.234Z,8.00
2022-12-09T08:13:43.268Z,7.93
2022-12-09T08:16:12.401Z,16.57
2022-12-09T08:18:40.250Z,26.27
2022-12-09T08:23:48.705Z,8.27
2022-12-09T08:26:17.743Z,8.47
2022-12-09T08:28:44.661Z,8.43
2022-12-09T08:31:14.625Z,9.60
2022-12-09T08:33:41.871Z,9.30
2022-12-09T08:36:21.019Z,8.67
2022-12-09T08:38:48.139Z,8.43
2022-12-09T08:41:21.527Z,8.53
2022-12-09T08:43:49.226Z,8.03
2022-12-09T08:46:16.444Z,7.87
2022-12-09T08:48:43.748Z,8.00
2022-12-09T08:51:12.231Z,11.07
2022-12-09T08:53:39.939Z,10.80
2022-12-09T08:56:14.815Z,9.57
2022-12-09T08:58:43.213Z,8.77
2022-12-09T09:01:26.828Z,8.10
2022-12-09T09:03:54.026Z,8.70
2022-12-09T09:06:21.479Z,9.23
2022-12-09T09:08:49.041Z,8.17
2022-12-09T09:11:19.713Z,8.23
2022-12-09T09:13:48.940Z,8.53
2022-12-09T09:16:19.244Z,7.97
2022-12-09T09:18:46.756Z,8.10
2022-12-09T09:21:16.092Z,8.30
2022-12-09T09:23:43.989Z,8.17
2022-12-09T09:26:13.255Z,8.77
2022-12-09T09:28:40.712Z,8.50
2022-12-09T09:31:09.375Z,8.63
2022-12-09T09:33:37.288Z,8.20
2022-12-09T09:36:10.166Z,8.60
2022-12-09T09:38:38.518Z,8.50
2022-12-09T09:41:34.866Z,9.43
2022-12-09T09:44:02.230Z,8.53
2022-12-09T09:46:40.015Z,8.83
2022-12-09T09:49:13.308Z,9.53
2022-12-09T09:51:40.169Z,9.30
2022-12-09T09:54:10.895Z,9.67
2022-12-09T09:56:47.941Z,9.37
2022-12-09T09:59:37.689Z,8.77
2022-12-09T10:02:19.477Z,9.17
2022-12-09T10:05:03.489Z,8.40
2022-12-09T10:07:57.293Z,8.40
2022-12-09T10:10:41.274Z,8.83
2022-12-09T10:13:29.641Z,10.57
2022-12-09T10:16:17.677Z,9.50
2022-12-09T10:18:53.650Z,10.90
2022-12-09T10:21:21.799Z,9.57
2022-12-09T10:23:50.693Z,9.30
2022-12-09T10:26:25.900Z,9.83
2022-12-09T10:29:18.695Z,9.77
2022-12-09T10:31:45.972Z,9.30
2022-12-09T10:34:14.360Z,8.77
2022-12-09T10:36:45.307Z,10.07
2022-12-09T10:39:19.070Z,9.13
2022-12-09T10:42:10.581Z,9.33
2022-12-09T10:44:37.561Z,9.43
2022-12-09T10:47:08.006Z,9.73
2022-12-09T10:49:36.214Z,12.20
2022-12-09T10:52:05.421Z,9.73
2022-12-09T10:54:37.188Z,9.93
2022-12-09T10:57:13.006Z,9.30
2022-12-09T10:59:42.498Z,11.10
2022-12-09T11:02:09.840Z,10.60
2022-12-09T11:04:37.210Z,10.33
2022-12-09T11:07:13.249Z,10.50
2022-12-09T11:09:45.821Z,10.17
2022-12-09T11:12:19.222Z,9.87
2022-12-09T11:14:52.547Z,9.77
2022-12-09T11:17:28.401Z,9.60
2022-12-09T11:20:17.646Z,10.30
2022-12-09T11:22:46.173Z,9.50
2022-12-09T11:25:16.625Z,10.23
2022-12-09T11:27:52.176Z,11.23
2022-12-09T11:30:21.903Z,9.90
2022-12-09T11:32:56.989Z,10.10
2022-12-09T11:35:31.235Z,10.17
2022-12-09T11:38:01.361Z,10.87
2022-12-09T11:40:28.961Z,10.80
2022-12-09T11:42:57.256Z,10.13
2022-12-09T11:45:33.795Z,10.13
2022-12-09T11:48:31.938Z,10.47
2022-12-09T11:51:01.934Z,11.20
2022-12-09T11:53:31.430Z,10.80
2022-12-09T11:56:16.014Z,10.90
2022-12-09T11:58:48.480Z,10.57
2022-12-09T12:01:28.928Z,11.43
2022-12-09T12:04:01.674Z,11.40
2022-12-09T12:06:39.952Z,10.63
2022-12-09T12:09:16.160Z,10.60
2022-12-09T12:11:51.715Z,11.87
2022-12-09T12:14:28.156Z,10.93
2022-12-09T12:17:14.299Z,10.20
2022-12-09T12:19:43.668Z,10.77
2022-12-09T12:22:35.044Z,10.13
2022-12-09T12:25:22.205Z,10.87
2022-12-09T12:28:26.395Z,11.47
2022-12-09T12:31:19.953Z,10.60
2022-12-09T12:34:23.509Z,10.73
2022-12-09T12:36:53.513Z,10.53
2022-12-09T12:39:26.101Z,17.50
2022-12-09T12:42:11.091Z,11.70
2022-12-09T12:48:15.897Z,10.83
2022-12-09T12:50:48.429Z,11.17
2022-12-09T12:53:33.784Z,11.50
2022-12-09T12:56:15.711Z,11.53
2022-12-09T12:59:00.300Z,10.97
2022-12-09T13:02:16.032Z,10.43
2022-12-09T13:04:54.749Z,10.70
2022-12-09T13:07:48.467Z,11.87
2022-12-09T13:10:39.824Z,12.03
2022-12-09T13:13:34.346Z,11.30
2022-12-09T13:16:07.143Z,12.33
2022-12-09T13:18:36.941Z,12.20
2022-12-09T13:24:08.800Z,11.60
2022-12-09T13:26:53.402Z,11.80
2022-12-09T13:29:47.640Z,12.03
2022-12-09T13:32:26.804Z,11.17
2022-12-09T13:37:54.961Z,18.87
2022-12-09T13:40:21.557Z,15.87
2022-12-09T13:42:58.996Z,12.27
2022-12-09T13:45:25.647Z,11.77
2022-12-09T13:47:56.393Z,12.07
2022-12-09T13:50:27.718Z,11.97
2022-12-09T13:52:57.922Z,12.30
2022-12-09T13:55:30.484Z,11.40
2022-12-09T13:58:12.654Z,12.53
2022-12-09T14:00:43.578Z,12.03
2022-12-09T14:03:30.575Z,12.50
2022-12-09T14:06:00.647Z,12.07
2022-12-09T14:08:33.697Z,12.77
2022-12-09T14:11:38.537Z,12.83
2022-12-09T14:14:23.496Z,13.33
2022-12-09T14:16:54.794Z,14.33
2022-12-09T14:19:24.125Z,14.10
2022-12-09T14:22:22.316Z,15.27
2022-12-09T14:24:52.928Z,15.73
2022-12-09T14:27:25.518Z,14.73
2022-12-09T14:29:52.113Z,14.37
2022-12-09T14:32:31.977Z,12.87
2022-12-09T14:35:10.504Z,14.33
2022-12-09T14:37:42.531Z,13.90
2022-12-09T14:40:14.835Z,14.87
2022-12-09T14:43:10.145Z,15.07
2022-12-09T14:46:00.574Z,14.23
2022-12-09T14:48:31.387Z,14.17
2022-12-09T14:51:20.155Z,13.70
2022-12-09T14:53:57.698Z,14.27
2022-12-09T14:56:26.118Z,13.57
2022-12-09T14:59:18.758Z,14.90
2022-12-09T15:01:54.444Z,15.37
2022-12-09T15:04:36.229Z,15.17
2022-12-09T15:07:20.392Z,14.93
2022-12-09T15:12:37.168Z,15.27
2022-12-09T15:15:23.438Z,15.20
2022-12-09T15:17:58.029Z,16.37
2022-12-09T15:20:27.621Z,14.53
2022-12-09T15:23:07.270Z,14.83
2022-12-09T15:25:45.388Z,15.40
2022-12-09T15:28:24.515Z,15.77
2022-12-09T15:33:42.525Z,16.83
2022-12-09T15:36:43.096Z,15.83
2022-12-09T15:39:18.392Z,17.30
2022-12-09T15:42:06.551Z,16.00
2022-12-09T15:44:36.142Z,16.73
2022-12-09T15:47:10.305Z,15.93
2022-12-09T15:49:45.240Z,17.50
2022-12-09T15:52:14.404Z,17.00
2022-12-09T15:54:44.474Z,16.93
2022-12-09T15:57:17.597Z,17.43
2022-12-09T15:59:55.512Z,17.80
2022-12-09T16:02:27.665Z,17.37
2022-12-09T16:04:58.154Z,18.03
2022-12-09T16:07:25.404Z,18.20
2022-12-09T16:10:12.806Z,17.77
2022-12-09T16:12:41.031Z,18.03
2022-12-09T16:15:11.406Z,18.20
2022-12-09T16:17:53.473Z,17.77
2022-12-09T16:23:25.020Z,17.93
2022-12-09T16:25:52.137Z,19.87
2022-12-09T16:28:27.565Z,19.60
2022-12-09T16:31:04.485Z,18.87
2022-12-09T16:33:37.747Z,18.73
2022-12-09T16:36:07.207Z,19.77
2022-12-09T16:38:38.854Z,18.97
2022-12-09T16:41:08.962Z,20.50
2022-12-09T16:46:14.111Z,20.20
2022-12-09T16:48:42.639Z,19.37
2022-12-09T16:51:21.133Z,19.43
2022-12-09T16:53:52.432Z,19.30
2022-12-09T16:56:20.436Z,19.20
2022-12-09T16:58:47.583Z,20.73
2022-12-09T17:01:16.707Z,20.93
2022-12-09T17:03:45.039Z,18.90
2022-12-09T17:06:17.220Z,19.63
2022-12-09T17:08:44.930Z,19.30
2022-12-09T17:11:12.277Z,19.07
2022-12-09T17:13:39.552Z,20.97
2022-12-09T17:16:07.141Z,19.33
2022-12-09T17:18:34.619Z,19.73
2022-12-09T17:21:04.527Z,19.03
2022-12-09T17:23:37.698Z,19.70
2022-12-09T17:26:08.015Z,18.57
2022-12-09T17:28:36.037Z,18.53
2022-12-09T17:31:11.215Z,19.67
2022-12-09T17:33:38.626Z,18.97
2022-12-09T17:36:06.159Z,18.73
2022-12-09T17:41:10.249Z,18.73
2022-12-09T17:43:37.480Z,19.07
2022-12-09T17:46:06.062Z,18.37
2022-12-09T17:48:34.547Z,19.00
2022-12-09T17:51:09.164Z,17.43
2022-12-09T17:53:37.509Z,19.13
2022-12-09T17:56:16.714Z,19.03
2022-12-09T18:04:04.674Z,18.57
2022-12-09T18:06:35.252Z,18.13
2022-12-09T18:09:04.484Z,18.27
2022-12-09T18:11:31.883Z,18.53
2022-12-09T18:13:59.297Z,24.17
2022-12-09T18:16:26.044Z,27.30
2022-12-09T18:18:53.309Z,87.20
2022-12-09T18:21:20.392Z,62.20
2022-12-09T18:23:48.525Z,22.73
2022-12-09T18:26:17.707Z,20.03
2022-12-09T18:28:44.626Z,18.20
2022-12-09T18:31:19.323Z,19.40
2022-12-09T18:33:46.631Z,19.57
2022-12-09T18:36:18.712Z,20.43
2022-12-09T18:38:45.455Z,19.33
2022-12-09T18:41:14.071Z,18.53
2022-12-09T18:43:43.181Z,19.70
2022-12-09T18:46:13.304Z,18.97
2022-12-09T18:48:40.885Z,18.83
2022-12-09T18:51:20.908Z,18.27
2022-12-09T18:53:48.737Z,19.37
2022-12-09T18:56:16.782Z,18.83
2022-12-09T18:59:05.302Z,19.80
2022-12-09T19:01:31.807Z,21.53
2022-12-09T19:04:03.775Z,24.47
2022-12-09T19:06:35.686Z,24.00
2022-12-09T19:11:41.669Z,20.73
2022-12-09T19:14:09.173Z,20.67
2022-12-09T19:16:36.168Z,66.40
2022-12-09T19:19:09.139Z,23.20
2022-12-09T19:21:37.326Z,24.13
2022-12-09T19:24:04.205Z,21.30
2022-12-09T19:26:33.122Z,20.00
2022-12-09T19:29:02.256Z,20.63
2022-12-09T19:31:38.644Z,22.17
2022-12-09T19:34:10.767Z,22.03
2022-12-09T19:36:37.459Z,22.13
2022-12-09T19:39:06.447Z,20.63
2022-12-09T19:41:33.118Z,22.50
2022-12-09T19:44:01.137Z,22.33
2022-12-09T19:46:28.745Z,22.67
2022-12-09T19:48:57.243Z,21.33
2022-12-09T19:51:25.275Z,21.47
2022-12-09T19:53:56.606Z,19.77
2022-12-09T19:56:24.283Z,20.40
2022-12-09T19:58:52.699Z,20.17
2022-12-09T20:01:22.909Z,20.07
2022-12-09T20:03:56.218Z,20.03
2022-12-09T20:06:23.011Z,21.03
2022-12-09T20:08:49.717Z,20.20
2022-12-09T20:11:19.925Z,19.93
2022-12-09T20:13:47.390Z,19.73
2022-12-09T20:16:18.373Z,19.57
2022-12-09T20:18:47.798Z,19.73
2022-12-09T20:21:16.555Z,18.80
2022-12-09T20:23:44.208Z,19.20
2022-12-09T20:26:20.376Z,19.07
2022-12-09T20:28:48.665Z,18.67
2022-12-09T20:31:21.011Z,19.13
2022-12-09T20:33:48.713Z,18.63
2022-12-09T20:36:19.707Z,19.00
2022-12-09T20:38:54.691Z,19.13
2022-12-09T20:41:22.479Z,19.37
2022-12-09T20:43:50.841Z,19.80
2022-12-09T20:46:20.598Z,18.97
2022-12-09T20:48:48.207Z,19.07
2022-12-09T20:51:41.531Z,18.67
2022-12-09T20:54:10.340Z,19.07
2022-12-09T20:56:37.634Z,19.97
2022-12-09T20:59:04.898Z,18.23
2022-12-09T21:01:34.412Z,19.23
2022-12-09T21:04:02.513Z,19.10
2022-12-09T21:06:34.392Z,18.70
2022-12-09T21:09:06.268Z,18.20
2022-12-09T21:11:33.077Z,20.03
2022-12-09T21:14:02.233Z,20.13
2022-12-09T21:16:34.828Z,18.77
2022-12-09T21:19:05.378Z,19.63
2022-12-09T21:21:35.340Z,19.40
2022-12-09T21:24:02.801Z,19.97
2022-12-09T21:29:01.769Z,19.40
2022-12-09T21:31:32.067Z,18.90
2022-12-09T21:34:03.799Z,17.93
2022-12-09T21:36:33.415Z,18.50
2022-12-09T21:39:00.705Z,19.20
2022-12-09T21:41:31.071Z,17.23
2022-12-09T21:43:58.159Z,18.10
2022-12-09T21:46:30.089Z,18.37
2022-12-09T21:49:03.350Z,18.63
2022-12-09T21:51:31.660Z,17.60
2022-12-09T21:53:58.304Z,18.67
2022-12-09T21:56:27.752Z,17.90
2022-12-09T21:58:57.348Z,18.03
2022-12-09T22:01:30.071Z,18.43
2022-12-09T22:03:58.452Z,19.00
2022-12-09T22:06:25.791Z,18.43
2022-12-09T22:08:52.441Z,18.73
2022-12-09T22:11:25.067Z,19.43
2022-12-09T22:13:52.747Z,19.63
2022-12-09T22:16:22.878Z,19.77
2022-12-09T22:18:50.660Z,19.10
2022-12-09T22:21:25.173Z,20.33
2022-12-09T22:23:55.003Z,19.23
2022-12-09T22:26:22.958Z,19.77
2022-12-09T22:28:50.282Z,19.17
2022-12-09T22:31:25.895Z,18.53
2022-12-09T22:33:54.661Z,18.47
2022-12-09T22:36:22.501Z,18.17
2022-12-09T22:38:49.776Z,19.10
2022-12-09T22:41:19.883Z,18.80
2022-12-09T22:43:48.363Z,16.53
2022-12-09T22:46:17.594Z,17.20
2022-12-09T22:48:44.485Z,16.60
2022-12-09T22:51:17.391Z,16.13
2022-12-09T22:53:44.647Z,16.37
2022-12-09T22:56:12.557Z,18.27
2022-12-09T22:58:39.186Z,17.83
2022-12-09T23:01:10.222Z,17.53
2022-12-09T23:03:37.357Z,17.20
2022-12-09T23:06:04.212Z,16.77
2022-12-09T23:08:30.903Z,16.50
2022-12-09T23:11:05.769Z,16.90
2022-12-09T23:13:36.208Z,16.80
2022-12-09T23:16:09.338Z,17.23
2022-12-09T23:18:36.145Z,17.50
2022-12-09T23:21:11.421Z,16.07
2022-12-09T23:23:38.633Z,17.03
2022-12-09T23:26:11.371Z,16.93
2022-12-09T23:28:42.797Z,16.43
2022-12-09T23:31:12.132Z,16.03
2022-12-09T23:33:40.081Z,15.53
2022-12-09T23:36:08.020Z,16.60
2022-12-09T23:38:35.164Z,16.80
2022-12-09T23:41:02.040Z,16.77
2022-12-09T23:43:33.088Z,15.60
2022-12-09T23:46:01.715Z,15.77
2022-12-09T23:48:28.441Z,16.13
2022-12-09T23:50:55.534Z,16.23
2022-12-09T23:53:22.603Z,16.63
2022-12-09T23:55:49.452Z,16.20
2022-12-09T23:58:19.244Z,16.63
